Time;durP1;ratioP1;P1;durP2;ratioP2;P2;SDS_P1;SDS_P2;PMS_P1;PMS_P2;Temp;Humidity;BMP_temperature;BMP_pressure;BME280_temperature;BME280_humidity;BME280_pressure;Samples;Min_cycle;Max_cycle;Signal;HPM_P1;HPM_P2
2022/10/21 00:02:22;;;;;;;;;;;19.90;97.00;;;;;;5134657;27;19908;-77
2022/10/21 00:04:49;;;;;;;;;;;19.90;97.10;;;;;;5134565;27;19968;-77
2022/10/21 00:07:15;;;;;;;;;;;20.00;97.20;;;;;;5105663;27;19916;-77
2022/10/21 00:09:42;;;;;;;;;;;20.00;97.20;;;;;;5134539;27;20385;-77
2022/10/21 00:12:09;;;;;;;;;;;20.10;97.20;;;;;;5134195;27;19911;-77
2022/10/21 00:14:35;;;;;;;;;;;20.20;97.30;;;;;;5134268;27;19951;-77
2022/10/21 00:17:02;;;;;;;;;;;20.20;97.30;;;;;;5133968;27;20331;-77
2022/10/21 00:19:29;;;;;;;;;;;20.20;97.20;;;;;;5134283;27;20418;-77
2022/10/21 00:21:55;;;;;;;;;;;20.20;97.20;;;;;;5134222;27;20276;-78
2022/10/21 00:24:22;;;;;;;;;;;20.20;97.20;;;;;;5134192;27;20369;-77
2022/10/21 00:26:49;;;;;;;;;;;20.20;97.20;;;;;;5134132;27;19958;-78
2022/10/21 00:29:16;;;;;;;;;;;20.30;97.30;;;;;;5115764;27;19907;-78
2022/10/21 00:31:42;;;;;;;;;;;20.30;97.30;;;;;;5134111;27;19926;-78
2022/10/21 00:34:09;;;;;;;;;;;20.30;97.30;;;;;;5133370;27;19950;-78
2022/10/21 00:36:36;;;;;;;;;;;20.30;97.30;;;;;;5134269;27;19911;-79
2022/10/21 00:39:02;;;;;;;;;;;20.40;97.20;;;;;;5133558;27;19960;-79
2022/10/21 00:41:29;;;;;;;;;;;20.50;97.30;;;;;;5133923;27;19907;-79
2022/10/21 00:43:58;;;;;;;;;;;20.50;96.90;;;;;;5133645;27;19960;-80
2022/10/21 00:46:31;;;;;;;;;;;20.50;97.00;;;;;;5105745;27;20277;-80
2022/10/21 00:48:58;;;;;;;;;;;20.50;97.00;;;;;;5133544;27;20317;-80
2022/10/21 00:51:24;;;;;;;;;;;20.50;97.00;;;;;;5115705;27;19907;-80
2022/10/21 00:53:51;;;;;;;;;;;20.60;97.10;;;;;;5133679;27;20359;-80
2022/10/21 00:56:19;;;;;;;;;;;20.60;96.90;;;;;;5133405;27;19914;-80
2022/10/21 00:58:46;;;;;;;;;;;20.50;96.80;;;;;;5114881;27;19924;-80
2022/10/21 01:01:13;;;;;;;;;;;20.60;96.90;;;;;;5114787;27;19911;-80
2022/10/21 01:03:40;;;;;;;;;;;20.60;96.80;;;;;;5133304;27;20340;-80
2022/10/21 01:06:07;;;;;;;;;;;20.50;96.40;;;;;;5133400;27;20268;-80
2022/10/21 01:08:34;;;;;;;;;;;20.50;96.50;;;;;;5114877;27;19916;-80
2022/10/21 01:11:01;;;;;;;;;;;20.50;96.40;;;;;;5115336;27;19918;-80
2022/10/21 01:13:30;;;;;;;;;;;20.40;96.30;;;;;;5115074;27;19951;-80
2022/10/21 01:16:15;;;;;;;;;;;20.50;96.30;;;;;;5133618;27;19960;-80
2022/10/21 01:18:42;;;;;;;;;;;20.50;96.40;;;;;;5133032;27;19912;-80
2022/10/21 01:21:17;;;;;;;;;;;20.40;96.00;;;;;;5133409;27;19914;-80
2022/10/21 01:23:56;;;;;;;;;;;20.40;95.90;;;;;;5133085;27;19968;-80
2022/10/21 01:26:41;;;;;;;;;;;20.40;96.00;;;;;;5133840;27;19920;-80
2022/10/21 01:29:19;;;;;;;;;;;20.40;95.80;;;;;;5133184;27;19918;-80
2022/10/21 01:31:48;;;;;;;;;;;20.40;95.80;;;;;;5115011;28;19908;-80
2022/10/21 01:34:24;;;;;;;;;;;20.40;95.90;;;;;;5114796;28;19911;-80
2022/10/21 01:37:03;;;;;;;;;;;20.30;95.80;;;;;;5133360;28;20365;-80
2022/10/21 01:39:32;;;;;;;;;;;20.50;96.10;;;;;;5133016;28;20285;-80
2022/10/21 01:41:59;;;;;;;;;;;20.50;95.90;;;;;;5133405;28;19907;-80
2022/10/21 01:44:33;;;;;;;;;;;20.50;95.90;;;;;;5133833;27;19907;-80
2022/10/21 01:47:01;;;;;;;;;;;20.60;95.70;;;;;;5137474;27;19919;-80
2022/10/21 01:49:28;;;;;;;;;;;20.50;95.30;;;;;;5101886;27;19912;-80
2022/10/21 01:51:54;;;;;;;;;;;20.60;95.30;;;;;;5137269;27;19960;-80
2022/10/21 01:54:32;;;;;;;;;;;20.60;95.50;;;;;;5118757;27;19923;-80
2022/10/21 01:56:59;;;;;;;;;;;20.70;95.30;;;;;;5118897;27;19914;-80
2022/10/21 01:59:26;;;;;;;;;;;20.70;95.20;;;;;;5118701;27;19969;-80
2022/10/21 02:01:53;;;;;;;;;;;20.70;94.80;;;;;;5137290;27;19914;-80
2022/10/21 02:04:19;;;;;;;;;;;20.80;95.20;;;;;;5118756;27;19908;-80
2022/10/21 02:06:46;;;;;;;;;;;20.90;95.20;;;;;;5118103;27;19976;-80
2022/10/21 02:09:13;;;;;;;;;;;20.90;95.00;;;;;;5118556;27;19908;-80
2022/10/21 02:11:39;;;;;;;;;;;20.90;94.80;;;;;;5118427;27;19907;-80
2022/10/21 02:14:10;;;;;;;;;;;20.90;94.80;;;;;;5118824;27;19954;-80
2022/10/21 02:16:37;;;;;;;;;;;21.00;94.80;;;;;;5118509;27;19908;-80
2022/10/21 02:19:05;;;;;;;;;;;21.00;94.20;;;;;;5118167;27;19914;-80
2022/10/21 02:21:32;;;;;;;;;;;21.00;93.90;;;;;;5118586;27;19903;-80
2022/10/21 02:24:04;;;;;;;;;;;21.00;94.20;;;;;;5118222;27;19915;-80
2022/10/21 02:26:31;;;;;;;;;;;21.10;94.30;;;;;;5118103;27;20327;-80
2022/10/21 02:28:58;;;;;;;;;;;21.10;94.20;;;;;;5136290;27;19968;-80
2022/10/21 02:31:30;;;;;;;;;;;21.00;94.00;;;;;;5118576;27;20273;-80
2022/10/21 02:33:59;;;;;;;;;;;21.10;94.10;;;;;;5136465;27;19907;-80
2022/10/21 02:36:25;;;;;;;;;;;21.10;93.70;;;;;;5118512;27;20350;-80
2022/10/21 02:38:57;;;;;;;;;;;21.10;93.70;;;;;;5136247;27;20002;-80
2022/10/21 02:41:24;;;;;;;;;;;21.20;93.90;;;;;;5117833;27;19918;-80
2022/10/21 02:43:57;;;;;;;;;;;21.30;93.20;;;;;;5118170;27;19965;-80
2022/10/21 02:46:24;;;;;;;;;;;21.20;92.80;;;;;;5089772;27;19912;-80
2022/10/21 02:48:51;;;;;;;;;;;21.30;93.30;;;;;;5136500;27;19915;-81
2022/10/21 02:51:17;;;;;;;;;;;21.20;92.60;;;;;;5135896;27;19915;-79
2022/10/21 02:53:44;;;;;;;;;;;21.20;92.00;;;;;;5136131;27;19908;-81
2022/10/21 02:56:11;;;;;;;;;;;21.10;91.30;;;;;;5135316;27;19915;-81
2022/10/21 02:58:37;;;;;;;;;;;21.00;91.50;;;;;;5135446;27;19926;-81
2022/10/21 03:01:04;;;;;;;;;;;20.90;92.00;;;;;;5135983;27;19914;-81
2022/10/21 03:03:30;;;;;;;;;;;20.90;92.20;;;;;;5135958;27;19991;-80
2022/10/21 03:05:57;;;;;;;;;;;21.00;92.60;;;;;;5135989;27;19943;-80
2022/10/21 03:08:24;;;;;;;;;;;20.90;92.50;;;;;;5135742;27;19923;-80
2022/10/21 03:10:50;;;;;;;;;;;20.90;92.50;;;;;;5135367;27;19934;-80
2022/10/21 03:13:17;;;;;;;;;;;20.80;92.00;;;;;;5135688;27;19961;-80
2022/10/21 03:15:44;;;;;;;;;;;20.90;92.30;;;;;;5135446;27;19976;-80
2022/10/21 03:18:10;;;;;;;;;;;20.90;92.60;;;;;;5135638;27;20377;-81
2022/10/21 03:20:37;;;;;;;;;;;20.90;92.70;;;;;;5135206;27;19907;-80
2022/10/21 03:23:03;;;;;;;;;;;20.90;92.10;;;;;;5135461;27;19941;-80
2022/10/21 03:25:30;;;;;;;;;;;20.90;92.30;;;;;;5135374;27;19930;-81
2022/10/21 03:27:57;;;;;;;;;;;20.90;91.50;;;;;;5135528;27;19922;-80
2022/10/21 03:30:23;;;;;;;;;;;20.90;92.10;;;;;;5135337;27;20392;-81
2022/10/21 03:32:50;;;;;;;;;;;20.90;91.80;;;;;;5134970;27;19907;-81
2022/10/21 03:35:16;;;;;;;;;;;20.90;92.00;;;;;;5134605;27;19930;-81
2022/10/21 03:37:43;;;;;;;;;;;20.90;91.80;;;;;;5135251;27;19937;-80
2022/10/21 03:40:10;;;;;;;;;;;20.90;91.30;;;;;;5135110;27;20014;-80
2022/10/21 03:42:36;;;;;;;;;;;20.90;91.70;;;;;;5134999;27;19914;-80
2022/10/21 03:45:03;;;;;;;;;;;21.00;91.30;;;;;;5135546;27;20037;-81
2022/10/21 03:47:30;;;;;;;;;;;21.10;91.10;;;;;;5134569;27;20002;-81
2022/10/21 03:49:57;;;;;;;;;;;21.20;90.70;;;;;;5134967;27;19915;-80
2022/10/21 03:52:24;;;;;;;;;;;21.20;90.60;;;;;;5134625;27;20426;-80
2022/10/21 03:54:50;;;;;;;;;;;21.20;90.60;;;;;;5134518;27;19912;-80
2022/10/21 03:57:17;;;;;;;;;;;21.20;90.30;;;;;;5134611;27;20315;-80
2022/10/21 03:59:43;;;;;;;;;;;21.20;90.60;;;;;;5134243;27;19947;-80
2022/10/21 04:02:10;;;;;;;;;;;21.20;89.20;;;;;;5134529;27;19908;-79
2022/10/21 04:04:37;;;;;;;;;;;21.20;89.30;;;;;;5134285;27;19908;-81
2022/10/21 04:07:03;;;;;;;;;;;21.20;89.80;;;;;;5134725;27;19915;-81
2022/10/21 04:09:30;;;;;;;;;;;21.10;89.40;;;;;;5133444;27;19908;-80
2022/10/21 04:11:57;;;;;;;;;;;21.20;89.60;;;;;;5134514;27;19985;-80
2022/10/21 04:14:23;;;;;;;;;;;21.10;89.70;;;;;;5134304;27;19907;-81
2022/10/21 04:16:50;;;;;;;;;;;21.20;89.60;;;;;;5134101;27;19976;-80
2022/10/21 04:19:17;;;;;;;;;;;21.20;89.90;;;;;;5134278;27;19951;-80
2022/10/21 04:21:44;;;;;;;;;;;21.20;89.90;;;;;;5134234;27;19908;-80
2022/10/21 04:24:10;;;;;;;;;;;21.20;89.80;;;;;;5134049;27;19911;-80
2022/10/21 04:26:37;;;;;;;;;;;21.20;89.90;;;;;;5134355;27;19911;-80
2022/10/21 04:29:04;;;;;;;;;;;21.30;90.00;;;;;;5133712;27;19918;-80
2022/10/21 04:31:30;;;;;;;;;;;21.20;90.10;;;;;;5133890;27;20334;-81
2022/10/21 04:33:57;;;;;;;;;;;21.30;90.00;;;;;;5133860;27;19911;-80
2022/10/21 04:36:24;;;;;;;;;;;21.30;89.70;;;;;;5133931;27;19915;-80
2022/10/21 04:38:50;;;;;;;;;;;21.30;89.90;;;;;;5133984;27;19919;-80
2022/10/21 04:41:17;;;;;;;;;;;21.40;89.70;;;;;;5133522;27;19904;-80
2022/10/21 04:43:44;;;;;;;;;;;21.50;89.70;;;;;;5134082;27;19907;-80
2022/10/21 04:46:12;;;;;;;;;;;21.60;89.10;;;;;;5133775;27;19964;-80
2022/10/21 04:48:39;;;;;;;;;;;21.70;89.20;;;;;;5133594;27;19915;-80
2022/10/21 04:51:06;;;;;;;;;;;21.70;88.20;;;;;;5133975;27;20355;-80
2022/10/21 04:53:32;;;;;;;;;;;21.70;88.40;;;;;;5133934;27;19914;-80
2022/10/21 04:55:59;;;;;;;;;;;21.70;88.60;;;;;;5133744;27;19907;-80
2022/10/21 04:58:26;;;;;;;;;;;21.70;88.50;;;;;;5133609;27;19919;-79
2022/10/21 05:00:52;;;;;;;;;;;21.70;88.70;;;;;;5133528;27;19953;-80
2022/10/21 05:03:19;;;;;;;;;;;21.70;88.20;;;;;;5133704;27;20262;-78
2022/10/21 05:05:49;;;;;;;;;;;21.70;87.80;;;;;;5123426;27;19916;-80
2022/10/21 05:08:16;;;;;;;;;;;21.70;87.80;;;;;;5111920;27;19920;-80
2022/10/21 05:10:42;;;;;;;;;;;21.80;87.80;;;;;;5133417;27;19907;-80
2022/10/21 05:13:09;;;;;;;;;;;21.80;87.20;;;;;;5133308;27;19959;-77
2022/10/21 05:15:36;;;;;;;;;;;21.70;87.40;;;;;;5107119;28;19911;-79
2022/10/21 05:18:03;;;;;;;;;;;21.70;87.20;;;;;;5102048;28;20040;-77
2022/10/21 05:20:29;;;;;;;;;;;21.70;87.10;;;;;;5100028;27;20385;-77
2022/10/21 05:22:56;;;;;;;;;;;21.70;87.20;;;;;;5130870;27;20339;-77
2022/10/21 05:25:23;;;;;;;;;;;21.70;87.40;;;;;;5127980;27;19965;-76
2022/10/21 05:27:49;;;;;;;;;;;21.70;86.40;;;;;;5119630;27;19923;-76
2022/10/21 05:30:16;;;;;;;;;;;21.70;86.00;;;;;;5129901;27;20476;-78
2022/10/21 05:32:43;;;;;;;;;;;21.70;86.40;;;;;;5130398;28;19954;-76
2022/10/21 05:35:10;;;;;;;;;;;21.60;85.90;;;;;;5130632;28;20452;-78
2022/10/21 05:37:37;;;;;;;;;;;21.60;85.10;;;;;;5117879;28;19908;-78
2022/10/21 05:40:04;;;;;;;;;;;21.60;84.10;;;;;;5130234;28;19915;-77
2022/10/21 05:42:31;;;;;;;;;;;21.50;84.00;;;;;;5105717;28;19957;-76
2022/10/21 05:44:57;;;;;;;;;;;21.50;83.90;;;;;;5130517;28;19907;-75
2022/10/21 05:47:24;;;;;;;;;;;21.50;84.10;;;;;;5112584;28;19946;-77
2022/10/21 05:49:51;;;;;;;;;;;21.50;83.90;;;;;;5130310;28;19971;-76
2022/10/21 05:52:18;;;;;;;;;;;21.50;84.20;;;;;;5130606;28;19908;-77
2022/10/21 05:54:45;;;;;;;;;;;21.50;84.30;;;;;;5128506;28;19915;-76
2022/10/21 05:57:11;;;;;;;;;;;21.50;83.90;;;;;;5119748;28;19935;-76
2022/10/21 05:59:38;;;;;;;;;;;21.40;84.00;;;;;;5109887;28;20018;-80
2022/10/21 06:02:05;;;;;;;;;;;21.40;84.60;;;;;;5109856;28;20479;-80
2022/10/21 06:04:31;;;;;;;;;;;21.40;85.10;;;;;;5105551;28;19916;-76
2022/10/21 06:06:58;;;;;;;;;;;21.40;84.90;;;;;;5108438;28;19920;-76
2022/10/21 06:09:25;;;;;;;;;;;21.30;85.00;;;;;;5107644;28;19908;-77
2022/10/21 06:11:51;;;;;;;;;;;21.30;84.70;;;;;;5109513;28;19912;-77
2022/10/21 06:14:19;;;;;;;;;;;21.30;85.00;;;;;;5093897;28;19916;-77
2022/10/21 06:16:45;;;;;;;;;;;21.30;85.20;;;;;;5102809;28;19966;-77
2022/10/21 06:19:12;;;;;;;;;;;21.30;85.40;;;;;;5109253;28;19912;-77
2022/10/21 06:21:39;;;;;;;;;;;21.30;86.00;;;;;;5109695;28;20012;-78
2022/10/21 06:24:05;;;;;;;;;;;21.30;85.90;;;;;;5109098;28;20316;-78
2022/10/21 06:26:32;;;;;;;;;;;21.20;86.00;;;;;;5108951;28;20332;-77
2022/10/21 06:28:59;;;;;;;;;;;21.20;86.00;;;;;;5108941;28;19920;-78
2022/10/21 06:31:25;;;;;;;;;;;21.20;85.90;;;;;;5091237;28;19911;-78
2022/10/21 06:33:52;;;;;;;;;;;21.20;85.70;;;;;;5111419;28;19916;-80
2022/10/21 06:36:19;;;;;;;;;;;21.20;86.10;;;;;;5100060;28;19919;-80
2022/10/21 06:38:45;;;;;;;;;;;21.10;86.20;;;;;;5108291;28;19911;-80
2022/10/21 06:41:12;;;;;;;;;;;21.10;86.30;;;;;;5092392;28;19931;-80
2022/10/21 06:43:39;;;;;;;;;;;21.10;86.50;;;;;;5074460;28;19913;-79
2022/10/21 06:46:06;;;;;;;;;;;21.10;86.90;;;;;;5094910;28;20019;-80
2022/10/21 06:48:33;;;;;;;;;;;21.00;87.10;;;;;;5101650;28;19920;-80
2022/10/21 06:51:00;;;;;;;;;;;21.00;87.40;;;;;;5095063;28;19916;-81
2022/10/21 06:53:27;;;;;;;;;;;21.00;87.80;;;;;;5095551;28;19920;-81
2022/10/21 06:56:03;;;;;;;;;;;20.90;87.90;;;;;;5095198;28;20006;-80
2022/10/21 06:58:30;;;;;;;;;;;20.90;88.10;;;;;;5113968;28;20396;-82
2022/10/21 07:00:57;;;;;;;;;;;20.90;88.10;;;;;;5105237;28;19919;-81
2022/10/21 07:03:24;;;;;;;;;;;20.80;88.30;;;;;;5101135;28;19947;-82
2022/10/21 07:05:56;;;;;;;;;;;20.80;88.30;;;;;;5124187;27;20426;-81
2022/10/21 07:08:23;;;;;;;;;;;20.80;88.20;;;;;;5126065;27;19915;-82
2022/10/21 07:10:50;;;;;;;;;;;20.80;88.10;;;;;;5135916;27;19950;-81
2022/10/21 07:13:16;;;;;;;;;;;20.70;88.30;;;;;;5132631;27;20358;-81
2022/10/21 07:15:43;;;;;;;;;;;20.70;88.60;;;;;;5103874;27;19912;-82
2022/10/21 07:18:10;;;;;;;;;;;20.70;88.60;;;;;;5112539;27;20218;-81
2022/10/21 07:20:36;;;;;;;;;;;20.70;88.70;;;;;;5119924;27;20014;-81
2022/10/21 07:23:03;;;;;;;;;;;20.70;89.00;;;;;;5117221;27;19990;-81
2022/10/21 07:25:29;;;;;;;;;;;20.70;88.90;;;;;;5115384;27;19920;-81
2022/10/21 07:27:57;;;;;;;;;;;20.70;89.10;;;;;;5113182;27;19934;-82
2022/10/21 07:30:23;;;;;;;;;;;20.60;89.20;;;;;;5112567;28;19907;-80
2022/10/21 07:32:50;;;;;;;;;;;20.60;89.30;;;;;;5108760;28;19912;-80
2022/10/21 07:35:17;;;;;;;;;;;20.70;89.40;;;;;;5107196;28;19912;-78
2022/10/21 07:37:44;;;;;;;;;;;20.60;89.50;;;;;;5092209;28;19919;-81
2022/10/21 07:40:11;;;;;;;;;;;20.60;89.70;;;;;;5111888;28;19934;-78
2022/10/21 07:42:38;;;;;;;;;;;20.60;89.50;;;;;;5111625;28;19998;-77
2022/10/21 07:45:04;;;;;;;;;;;20.50;89.80;;;;;;5111521;28;19908;-80
2022/10/21 07:47:31;;;;;;;;;;;20.50;89.80;;;;;;5104708;28;19945;-80
2022/10/21 07:49:58;;;;;;;;;;;20.50;90.00;;;;;;5108681;28;20400;-79
2022/10/21 07:52:25;;;;;;;;;;;20.50;90.00;;;;;;5109958;28;19915;-79
2022/10/21 07:54:52;;;;;;;;;;;20.50;90.20;;;;;;5111740;28;19918;-79
2022/10/21 07:57:19;;;;;;;;;;;20.50;90.20;;;;;;5110605;28;20457;-80
2022/10/21 07:59:46;;;;;;;;;;;20.50;90.30;;;;;;5111702;28;19927;-79
2022/10/21 08:02:12;;;;;;;;;;;20.50;90.40;;;;;;5111839;28;19912;-76
2022/10/21 08:04:39;;;;;;;;;;;20.50;90.40;;;;;;5093230;28;19912;-77
2022/10/21 08:07:06;;;;;;;;;;;20.50;90.40;;;;;;5122340;27;19953;-80
2022/10/21 08:09:32;;;;;;;;;;;20.50;90.50;;;;;;5131344;27;19918;-79
2022/10/21 08:11:59;;;;;;;;;;;20.50;90.50;;;;;;5131592;27;19929;-80
2022/10/21 08:14:25;;;;;;;;;;;20.50;90.50;;;;;;5131559;27;20344;-80
2022/10/21 08:16:52;;;;;;;;;;;20.50;90.60;;;;;;5122567;27;19908;-80
2022/10/21 08:19:28;;;;;;;;;;;20.50;90.50;;;;;;5112539;27;19922;-76
2022/10/21 08:21:54;;;;;;;;;;;20.40;90.60;;;;;;5111386;28;20002;-76
2022/10/21 08:24:22;;;;;;;;;;;20.40;90.50;;;;;;5102013;28;19915;-76
2022/10/21 08:26:49;;;;;;;;;;;20.40;90.60;;;;;;5110003;28;20331;-78
2022/10/21 08:29:16;;;;;;;;;;;20.40;90.50;;;;;;5110879;28;19919;-79
2022/10/21 08:31:42;;;;;;;;;;;20.40;90.50;;;;;;5109890;28;19912;-79
2022/10/21 08:34:09;;;;;;;;;;;20.30;90.30;;;;;;5110924;28;20378;-81
2022/10/21 08:36:36;;;;;;;;;;;20.30;89.90;;;;;;5109894;28;19921;-79
2022/10/21 08:39:02;;;;;;;;;;;20.30;89.60;;;;;;5109811;28;19920;-80
2022/10/21 08:41:29;;;;;;;;;;;20.30;89.70;;;;;;5110601;28;19914;-81
2022/10/21 08:43:57;;;;;;;;;;;20.20;89.40;;;;;;5110427;28;19908;-77
2022/10/21 08:46:25;;;;;;;;;;;20.30;89.20;;;;;;5093362;28;19950;-79
2022/10/21 08:48:58;;;;;;;;;;;20.20;89.00;;;;;;5092359;28;20002;-78
2022/10/21 08:51:35;;;;;;;;;;;20.20;89.00;;;;;;5110928;28;19953;-80
2022/10/21 08:54:04;;;;;;;;;;;20.20;88.80;;;;;;5089851;28;19918;-78
2022/10/21 08:56:31;;;;;;;;;;;20.20;88.90;;;;;;5093781;28;19961;-78
2022/10/21 08:58:58;;;;;;;;;;;20.20;88.70;;;;;;5110159;28;20465;-79
2022/10/21 09:01:24;;;;;;;;;;;20.20;88.70;;;;;;5110446;28;20901;-76
2022/10/21 09:04:03;;;;;;;;;;;20.20;88.60;;;;;;5110184;28;20376;-76
2022/10/21 09:06:30;;;;;;;;;;;20.20;88.40;;;;;;5114546;27;20354;-78
2022/10/21 09:09:15;;;;;;;;;;;20.20;88.20;;;;;;5130310;27;19915;-78
2022/10/21 09:12:02;;;;;;;;;;;20.20;88.30;;;;;;5130732;27;19908;-77
2022/10/21 09:14:44;;;;;;;;;;;20.20;88.10;;;;;;5130146;27;20365;-75
2022/10/21 09:17:17;;;;;;;;;;;20.10;88.10;;;;;;5091343;27;19919;-76
2022/10/21 09:19:43;;;;;;;;;;;20.10;88.00;;;;;;5130168;27;19999;-80
2022/10/21 09:22:28;;;;;;;;;;;20.00;87.90;;;;;;5130315;27;20309;-78
2022/10/21 09:24:59;;;;;;;;;;;20.00;87.80;;;;;;5113522;27;19926;-79
2022/10/21 09:27:26;;;;;;;;;;;20.00;87.70;;;;;;5130601;27;19926;-79
2022/10/21 09:29:54;;;;;;;;;;;20.00;87.90;;;;;;5119363;27;19912;-79
2022/10/21 09:32:26;;;;;;;;;;;20.00;87.90;;;;;;5094392;28;20305;-79
2022/10/21 09:34:52;;;;;;;;;;;20.00;88.00;;;;;;5112485;28;19947;-79
2022/10/21 09:37:38;;;;;;;;;;;20.00;87.60;;;;;;5107076;28;20029;-79
2022/10/21 09:40:11;;;;;;;;;;;20.00;87.70;;;;;;5104686;28;19954;-79
2022/10/21 09:42:37;;;;;;;;;;;20.00;87.70;;;;;;5112490;28;20106;-80
2022/10/21 09:45:04;;;;;;;;;;;20.00;87.70;;;;;;5094486;28;19923;-80
2022/10/21 09:47:31;;;;;;;;;;;20.00;87.80;;;;;;5112052;28;19923;-78
2022/10/21 09:49:58;;;;;;;;;;;20.00;87.60;;;;;;5094693;28;20020;-80
2022/10/21 09:52:26;;;;;;;;;;;20.00;87.50;;;;;;5094294;28;19908;-80
2022/10/21 09:54:53;;;;;;;;;;;20.00;87.40;;;;;;5094557;28;19986;-79
2022/10/21 09:57:23;;;;;;;;;;;20.00;87.80;;;;;;5112450;28;20010;-80
2022/10/21 09:59:50;;;;;;;;;;;20.00;87.80;;;;;;5109733;28;19923;-80
2022/10/21 10:02:17;;;;;;;;;;;20.00;87.90;;;;;;5105512;28;19908;-80
2022/10/21 10:04:44;;;;;;;;;;;20.00;87.80;;;;;;5112333;28;19922;-80
2022/10/21 10:07:26;;;;;;;;;;;20.00;87.80;;;;;;5116023;27;19915;-80
2022/10/21 10:09:53;;;;;;;;;;;20.00;87.90;;;;;;5123759;27;19915;-80
2022/10/21 10:12:20;;;;;;;;;;;20.00;88.10;;;;;;5135094;27;19912;-80
2022/10/21 10:14:47;;;;;;;;;;;20.00;88.10;;;;;;5136806;27;19952;-78
2022/10/21 10:17:23;;;;;;;;;;;20.00;88.00;;;;;;5136434;27;19911;-79
2022/10/21 10:20:09;;;;;;;;;;;20.00;88.10;;;;;;5127551;27;20372;-80
2022/10/21 10:22:37;;;;;;;;;;;20.00;88.20;;;;;;5128888;27;19960;-81
2022/10/21 10:25:06;;;;;;;;;;;20.00;88.60;;;;;;5124890;27;19934;-79
2022/10/21 10:27:33;;;;;;;;;;;19.90;88.50;;;;;;5128526;27;19920;-79
2022/10/21 10:30:00;;;;;;;;;;;19.90;88.80;;;;;;5100034;27;19907;-79
2022/10/21 10:32:30;;;;;;;;;;;20.00;89.00;;;;;;5136629;27;19939;-80
2022/10/21 10:34:57;;;;;;;;;;;20.00;88.90;;;;;;5117087;27;19933;-79
2022/10/21 10:37:24;;;;;;;;;;;20.00;89.10;;;;;;5110818;27;19914;-79
2022/10/21 10:39:55;;;;;;;;;;;19.90;89.20;;;;;;5106968;27;19915;-80
2022/10/21 10:42:26;;;;;;;;;;;19.90;89.40;;;;;;5118143;27;20008;-80
2022/10/21 10:44:56;;;;;;;;;;;19.90;89.30;;;;;;5135953;27;19907;-80
2022/10/21 10:47:27;;;;;;;;;;;19.90;89.20;;;;;;5105807;27;19927;-80
2022/10/21 10:49:54;;;;;;;;;;;19.90;89.10;;;;;;5136708;27;19907;-80
2022/10/21 10:52:23;;;;;;;;;;;19.90;89.30;;;;;;5135902;27;19972;-80
2022/10/21 10:55:07;;;;;;;;;;;19.80;89.30;;;;;;5135777;27;20358;-79
2022/10/21 10:57:34;;;;;;;;;;;19.90;89.40;;;;;;5123618;27;19974;-79
2022/10/21 11:00:05;;;;;;;;;;;19.90;89.50;;;;;;5117808;27;19912;-80
2022/10/21 11:02:39;;;;;;;;;;;19.90;89.50;;;;;;5135995;27;19945;-80
2022/10/21 11:05:26;;;;;;;;;;;19.90;89.60;;;;;;5114015;27;19908;-80
2022/10/21 11:08:00;;;;;;;;;;;19.90;89.60;;;;;;5093590;28;19945;-80
2022/10/21 11:10:43;;;;;;;;;;;19.90;89.60;;;;;;5115608;27;19931;-80
2022/10/21 11:13:14;;;;;;;;;;;19.90;89.70;;;;;;5117684;27;19930;-80
2022/10/21 11:15:45;;;;;;;;;;;19.90;89.80;;;;;;5106305;27;19947;-80
2022/10/21 11:18:32;;;;;;;;;;;19.90;89.60;;;;;;5126851;27;19956;-80
2022/10/21 11:21:17;;;;;;;;;;;19.80;89.70;;;;;;5121912;27;19954;-80
2022/10/21 11:23:43;;;;;;;;;;;19.80;89.80;;;;;;5135566;27;20360;-80
2022/10/21 11:26:10;;;;;;;;;;;19.80;89.60;;;;;;5119357;27;19911;-80
2022/10/21 11:28:55;;;;;;;;;;;19.80;89.70;;;;;;5135407;27;19915;-80
2022/10/21 11:31:31;;;;;;;;;;;19.90;89.60;;;;;;5093897;27;19976;-80
2022/10/21 11:34:03;;;;;;;;;;;19.80;89.70;;;;;;5130414;27;19911;-80
2022/10/21 11:36:33;;;;;;;;;;;19.80;89.80;;;;;;5117398;27;19979;-80
2022/10/21 11:39:18;;;;;;;;;;;19.80;89.70;;;;;;5134948;27;20013;-80
2022/10/21 11:41:49;;;;;;;;;;;19.80;89.70;;;;;;5135053;27;20347;-80
2022/10/21 11:44:20;;;;;;;;;;;19.80;89.70;;;;;;5112540;27;20299;-80
2022/10/21 11:47:05;;;;;;;;;;;19.80;89.60;;;;;;5103335;28;19916;-79
2022/10/21 11:49:37;;;;;;;;;;;19.80;89.70;;;;;;5132809;27;19912;-80
2022/10/21 11:52:22;;;;;;;;;;;19.80;89.50;;;;;;5135060;27;19907;-80
2022/10/21 11:55:09;;;;;;;;;;;19.80;89.40;;;;;;5134864;27;19908;-80
2022/10/21 11:57:55;;;;;;;;;;;19.80;89.50;;;;;;5128744;27;19916;-79
2022/10/21 12:00:25;;;;;;;;;;;19.70;89.40;;;;;;5112631;27;19956;-80
2022/10/21 12:03:10;;;;;;;;;;;19.70;89.30;;;;;;5127053;27;19912;-79
2022/10/21 12:05:41;;;;;;;;;;;19.70;89.40;;;;;;5134530;27;19911;-80
2022/10/21 12:08:21;;;;;;;;;;;19.70;89.50;;;;;;5102312;28;19920;-79
2022/10/21 12:10:50;;;;;;;;;;;19.70;89.50;;;;;;5089442;27;19943;-79
2022/10/21 12:13:17;;;;;;;;;;;19.70;89.50;;;;;;5117118;27;20167;-80
2022/10/21 12:16:09;;;;;;;;;;;19.70;89.30;;;;;;5133682;27;20419;-79
2022/10/21 12:18:55;;;;;;;;;;;19.70;89.40;;;;;;5132120;27;20353;-79
2022/10/21 12:21:25;;;;;;;;;;;19.70;89.50;;;;;;5125121;27;20783;-79
2022/10/21 12:23:57;;;;;;;;;;;19.70;89.50;;;;;;5116042;27;19915;-80
2022/10/21 12:26:26;;;;;;;;;;;19.70;89.60;;;;;;5116101;27;19908;-79
2022/10/21 12:28:55;;;;;;;;;;;19.60;89.80;;;;;;5133500;27;19964;-79
2022/10/21 12:31:39;;;;;;;;;;;19.60;89.90;;;;;;5123628;27;20186;-79
2022/10/21 12:34:07;;;;;;;;;;;19.60;90.00;;;;;;5091163;27;19973;-79
2022/10/21 12:36:40;;;;;;;;;;;19.60;90.00;;;;;;5096011;28;19908;-79
2022/10/21 12:39:29;;;;;;;;;;;19.60;90.00;;;;;;5115656;27;20322;-79
2022/10/21 12:42:11;;;;;;;;;;;19.60;90.00;;;;;;5103787;27;19915;-79
2022/10/21 12:44:38;;;;;;;;;;;19.50;90.10;;;;;;5114598;27;19912;-79
2022/10/21 12:47:20;;;;;;;;;;;19.50;90.20;;;;;;5098599;27;20401;-80
2022/10/21 12:49:47;;;;;;;;;;;19.50;90.30;;;;;;5081568;28;19920;-79
2022/10/21 12:52:22;;;;;;;;;;;19.50;90.20;;;;;;5098223;28;19915;-79
2022/10/21 12:54:59;;;;;;;;;;;19.60;90.40;;;;;;5112961;28;20430;-78
2022/10/21 12:57:35;;;;;;;;;;;19.50;90.30;;;;;;5094172;28;20002;-79
2022/10/21 13:00:14;;;;;;;;;;;19.50;90.30;;;;;;5092823;28;20017;-79
2022/10/21 13:02:59;;;;;;;;;;;19.50;90.30;;;;;;5119245;27;20262;-79
2022/10/21 13:05:45;;;;;;;;;;;19.50;90.30;;;;;;5115148;27;19958;-79
2022/10/21 13:08:27;;;;;;;;;;;19.50;90.40;;;;;;5105834;28;19920;-79
2022/10/21 13:11:00;;;;;;;;;;;19.50;90.50;;;;;;5102303;28;20027;-79
2022/10/21 13:13:33;;;;;;;;;;;19.50;90.50;;;;;;5115589;27;19965;-79
2022/10/21 13:16:00;;;;;;;;;;;19.50;90.60;;;;;;5114790;28;19930;-79
2022/10/21 13:18:45;;;;;;;;;;;19.50;90.60;;;;;;5117352;27;19907;-79
2022/10/21 13:21:37;;;;;;;;;;;19.50;90.80;;;;;;5111030;27;19918;-79
2022/10/21 13:24:15;;;;;;;;;;;19.50;90.80;;;;;;5110554;27;20010;-79
2022/10/21 13:26:47;;;;;;;;;;;19.40;90.90;;;;;;5117181;27;19907;-79
2022/10/21 13:29:14;;;;;;;;;;;19.40;91.00;;;;;;5117225;28;20340;-80
2022/10/21 13:31:40;;;;;;;;;;;19.40;91.20;;;;;;5117145;27;19912;-80
2022/10/21 13:34:19;;;;;;;;;;;19.30;91.30;;;;;;5096708;28;19915;-79
2022/10/21 13:36:49;;;;;;;;;;;19.30;91.30;;;;;;5094412;28;19981;-78
2022/10/21 13:39:23;;;;;;;;;;;19.30;91.40;;;;;;5112511;28;19916;-79
2022/10/21 13:41:57;;;;;;;;;;;19.30;91.50;;;;;;5111690;28;19992;-79
2022/10/21 13:44:27;;;;;;;;;;;19.30;91.50;;;;;;5097821;28;19911;-79
2022/10/21 13:46:53;;;;;;;;;;;19.30;91.50;;;;;;5116602;28;19908;-79
2022/10/21 13:49:30;;;;;;;;;;;19.40;91.40;;;;;;5098422;28;19916;-79
2022/10/21 13:51:57;;;;;;;;;;;19.40;91.40;;;;;;5098623;28;19915;-79
2022/10/21 13:54:24;;;;;;;;;;;19.30;91.60;;;;;;5116667;28;19947;-79
2022/10/21 13:56:50;;;;;;;;;;;19.30;91.70;;;;;;5115631;28;20342;-79
2022/10/21 13:59:24;;;;;;;;;;;19.30;91.60;;;;;;5115941;28;19919;-79
2022/10/21 14:01:52;;;;;;;;;;;19.30;91.60;;;;;;5116535;28;19919;-79
2022/10/21 14:04:25;;;;;;;;;;;19.30;91.80;;;;;;5113896;28;19969;-79
2022/10/21 14:06:59;;;;;;;;;;;19.30;91.70;;;;;;5129541;27;19911;-79
2022/10/21 14:09:30;;;;;;;;;;;19.30;91.90;;;;;;5130082;27;20269;-79
2022/10/21 14:11:59;;;;;;;;;;;19.30;91.90;;;;;;5118532;27;20369;-79
2022/10/21 14:14:26;;;;;;;;;;;19.30;92.00;;;;;;5118883;27;19918;-79
2022/10/21 14:16:56;;;;;;;;;;;19.30;92.10;;;;;;5118577;27;19907;-79
2022/10/21 14:19:25;;;;;;;;;;;19.20;92.20;;;;;;5136693;27;19911;-79
2022/10/21 14:21:52;;;;;;;;;;;19.20;92.20;;;;;;5130942;27;19907;-79
2022/10/21 14:24:26;;;;;;;;;;;19.20;92.30;;;;;;5134948;27;19934;-80
2022/10/21 14:26:53;;;;;;;;;;;19.20;92.40;;;;;;5108726;27;19912;-79
2022/10/21 14:29:21;;;;;;;;;;;19.20;92.20;;;;;;5136389;27;19916;-79
2022/10/21 14:31:47;;;;;;;;;;;19.20;92.30;;;;;;5133211;27;19938;-79